createdAt,value
2019-03-22T00:00:34.726Z,69.81
2019-03-22T00:03:08.835Z,69.89
2019-03-22T00:05:42.848Z,69.82
2019-03-22T00:08:16.773Z,69.95
2019-03-22T00:10:50.959Z,69.89
2019-03-22T00:13:25.274Z,70.05
2019-03-22T00:16:01.305Z,69.88
2019-03-22T00:18:35.575Z,69.88
2019-03-22T00:21:10.721Z,69.66
2019-03-22T00:23:45.043Z,69.78
2019-03-22T00:26:19.311Z,69.64
2019-03-22T00:28:53.531Z,69.57
2019-03-22T00:31:28.392Z,69.32
2019-03-22T00:34:03.732Z,69.60
2019-03-22T00:36:39.793Z,69.60
2019-03-22T00:39:14.108Z,69.94
2019-03-22T00:41:48.350Z,69.97
2019-03-22T00:44:22.586Z,70.02
2019-03-22T00:46:56.895Z,70.00
2019-03-22T00:49:31.157Z,69.94
2019-03-22T00:52:05.464Z,69.88
2019-03-22T00:54:39.687Z,69.99
2019-03-22T00:57:13.975Z,69.89
2019-03-22T00:59:48.291Z,69.77
2019-03-22T01:02:22.412Z,69.89
2019-03-22T01:04:56.614Z,70.26
2019-03-22T01:07:30.932Z,70.39
2019-03-22T01:10:05.761Z,70.77
2019-03-22T01:12:40.388Z,70.65
2019-03-22T01:15:14.702Z,70.86
2019-03-22T01:17:50.121Z,70.89
2019-03-22T01:20:24.451Z,70.78
2019-03-22T01:22:58.758Z,71.14
2019-03-22T01:25:33.063Z,71.17
2019-03-22T01:28:07.636Z,71.20
2019-03-22T01:30:41.889Z,71.41
2019-03-22T01:33:16.136Z,71.64
2019-03-22T01:35:50.582Z,71.96
2019-03-22T01:38:24.894Z,72.15
2019-03-22T01:40:59.230Z,71.84
2019-03-22T01:43:33.591Z,71.95
2019-03-22T01:46:15.817Z,71.84
2019-03-22T01:48:50.141Z,71.80
2019-03-22T01:51:24.394Z,71.94
2019-03-22T01:53:58.731Z,72.84
2019-03-22T01:56:33.386Z,73.44
2019-03-22T01:59:07.715Z,73.75
2019-03-22T02:01:41.944Z,73.90
2019-03-22T02:04:17.287Z,73.81
2019-03-22T02:06:51.529Z,73.95
2019-03-22T02:09:25.788Z,73.65
2019-03-22T02:12:00.459Z,73.48
2019-03-22T02:14:34.783Z,73.71
2019-03-22T02:17:09.994Z,73.55
2019-03-22T02:19:44.832Z,73.37
2019-03-22T02:22:19.133Z,73.20
2019-03-22T02:24:54.530Z,73.38
2019-03-22T02:27:28.866Z,73.45
2019-03-22T02:30:03.143Z,73.53
2019-03-22T02:32:37.331Z,73.80
2019-03-22T02:35:26.913Z,73.76
2019-03-22T02:37:47.685Z,73.67
2019-03-22T02:40:22.075Z,74.10
2019-03-22T02:42:56.423Z,74.05
2019-03-22T02:45:30.734Z,74.08
2019-03-22T02:48:05.099Z,74.04
2019-03-22T02:50:39.389Z,73.86
2019-03-22T02:53:13.745Z,73.99
2019-03-22T02:55:48.097Z,73.84
2019-03-22T02:58:22.434Z,73.67
2019-03-22T03:00:56.687Z,73.67
2019-03-22T03:03:31.335Z,73.68
2019-03-22T03:06:05.605Z,73.13
2019-03-22T03:08:41.466Z,73.26
2019-03-22T03:11:15.804Z,73.19
2019-03-22T03:13:50.109Z,73.13
2019-03-22T03:16:26.629Z,72.94
2019-03-22T03:19:01.061Z,72.66
2019-03-22T03:21:36.393Z,72.71
2019-03-22T03:24:10.631Z,72.33
2019-03-22T03:26:44.909Z,72.52
2019-03-22T03:29:19.261Z,72.43
2019-03-22T03:31:53.512Z,72.57
2019-03-22T03:34:28.231Z,72.89
2019-03-22T03:37:07.073Z,73.00
2019-03-22T03:39:41.277Z,73.22
2019-03-22T03:42:15.620Z,73.69
2019-03-22T03:44:49.908Z,74.11
2019-03-22T03:47:24.168Z,74.55
2019-03-22T03:49:59.038Z,74.74
2019-03-22T03:52:33.359Z,75.12
2019-03-22T03:55:08.989Z,75.13
2019-03-22T03:57:43.251Z,75.04
2019-03-22T04:00:18.172Z,74.95
2019-03-22T04:02:52.523Z,75.11
2019-03-22T04:05:26.842Z,75.02
2019-03-22T04:08:01.126Z,75.25
2019-03-22T04:10:35.788Z,75.56
2019-03-22T04:13:10.086Z,75.60
2019-03-22T04:15:44.359Z,75.72
2019-03-22T04:18:18.699Z,75.54
2019-03-22T04:20:52.944Z,75.55
2019-03-22T04:23:27.270Z,75.33
2019-03-22T04:26:01.494Z,75.78
2019-03-22T04:28:35.804Z,75.67
2019-03-22T04:31:11.105Z,75.80
2019-03-22T04:33:45.485Z,75.56
2019-03-22T04:36:19.812Z,75.51
2019-03-22T04:38:54.260Z,75.53
2019-03-22T04:41:28.540Z,75.47
2019-03-22T04:44:06.815Z,75.35
2019-03-22T04:46:41.456Z,75.17
2019-03-22T04:49:16.551Z,75.12
2019-03-22T04:51:51.122Z,75.16
2019-03-22T04:54:25.441Z,75.13
2019-03-22T04:56:59.807Z,75.26
2019-03-22T04:59:34.093Z,75.17
2019-03-22T05:02:08.465Z,75.13
2019-03-22T05:04:42.832Z,75.33
2019-03-22T05:07:17.147Z,75.35
2019-03-22T05:09:51.429Z,75.19
2019-03-22T05:12:26.021Z,75.05
2019-03-22T05:15:00.359Z,75.10
2019-03-22T05:17:35.745Z,74.80
2019-03-22T05:20:09.926Z,74.98
2019-03-22T05:22:44.011Z,74.99
2019-03-22T05:25:17.984Z,74.81
2019-03-22T05:27:51.944Z,74.76
2019-03-22T05:31:24.046Z,75.08
2019-03-22T05:33:58.426Z,74.90
2019-03-22T05:36:32.369Z,74.63
2019-03-22T05:39:09.444Z,74.62
2019-03-22T05:41:43.379Z,74.46
2019-03-22T05:44:17.347Z,74.36
2019-03-22T05:46:51.183Z,74.48
2019-03-22T05:49:25.407Z,74.56
2019-03-22T05:51:59.625Z,74.62
2019-03-22T05:54:33.719Z,74.89
2019-03-22T05:57:13.583Z,74.80
2019-03-22T05:59:44.697Z,74.73
2019-03-22T06:02:18.877Z,74.93
2019-03-22T06:04:53.048Z,74.96
2019-03-22T06:07:27.235Z,74.97
2019-03-22T06:10:01.276Z,74.80
2019-03-22T06:12:35.255Z,74.82
2019-03-22T06:15:10.041Z,74.88
2019-03-22T06:17:51.690Z,74.87
2019-03-22T06:20:20.158Z,74.75
2019-03-22T06:22:54.835Z,74.80
2019-03-22T06:25:29.007Z,74.64
2019-03-22T06:28:04.921Z,74.69
2019-03-22T06:30:38.991Z,74.69
2019-03-22T06:33:13.152Z,74.70
2019-03-22T06:35:47.393Z,74.32
2019-03-22T06:38:21.296Z,74.40
2019-03-22T06:40:56.088Z,74.68
2019-03-22T06:43:30.033Z,74.52
2019-03-22T06:46:05.424Z,74.23
2019-03-22T06:48:39.418Z,74.33
2019-03-22T06:51:13.356Z,74.13
2019-03-22T06:53:47.331Z,74.24
2019-03-22T06:56:21.299Z,74.21
2019-03-22T06:58:55.268Z,74.25
2019-03-22T07:01:29.258Z,74.26
2019-03-22T07:04:04.280Z,74.04
2019-03-22T07:06:38.247Z,73.99
2019-03-22T07:09:12.752Z,73.80
2019-03-22T07:11:46.703Z,73.85
2019-03-22T07:14:20.691Z,73.74
2019-03-22T07:16:54.605Z,73.69
2019-03-22T07:19:28.617Z,73.62
2019-03-22T07:22:02.566Z,73.51
2019-03-22T07:24:36.571Z,73.65
2019-03-22T07:27:10.554Z,73.97
2019-03-22T07:29:44.554Z,73.44
2019-03-22T07:32:18.545Z,75.84
2019-03-22T07:34:52.507Z,73.20
2019-03-22T07:37:26.459Z,72.22
2019-03-22T07:40:00.450Z,72.17
2019-03-22T07:42:34.433Z,72.19
2019-03-22T07:45:08.499Z,71.98
2019-03-22T07:47:42.445Z,72.40
2019-03-22T07:50:18.354Z,71.82
2019-03-22T07:52:52.282Z,71.74
2019-03-22T07:55:26.268Z,74.77
2019-03-22T07:58:00.315Z,72.29
2019-03-22T08:00:34.283Z,71.38
2019-03-22T08:03:09.675Z,71.15
2019-03-22T08:05:50.969Z,71.02
2019-03-22T08:08:20.989Z,71.34
2019-03-22T08:10:56.428Z,71.25
2019-03-22T08:13:30.401Z,71.07
2019-03-22T08:16:04.277Z,75.95
2019-03-22T08:18:38.274Z,74.95
2019-03-22T08:21:12.184Z,71.58
2019-03-22T08:23:46.136Z,72.51
2019-03-22T08:26:20.075Z,70.67
2019-03-22T08:28:54.013Z,68.24
2019-03-22T08:31:27.999Z,66.26
2019-03-22T08:34:01.954Z,64.49
2019-03-22T08:36:36.837Z,65.71
2019-03-22T08:39:11.360Z,67.00
2019-03-22T08:41:45.339Z,67.35
2019-03-22T08:44:19.654Z,67.40
2019-03-22T08:46:53.658Z,67.80
2019-03-22T08:49:27.743Z,68.10
2019-03-22T08:52:01.998Z,68.82
2019-03-22T08:54:38.326Z,68.93
2019-03-22T08:57:13.263Z,69.12
2019-03-22T08:59:47.131Z,69.31
2019-03-22T09:02:21.196Z,69.44
2019-03-22T09:04:55.185Z,69.60
2019-03-22T09:07:29.128Z,69.74
2019-03-22T09:10:03.019Z,69.82
2019-03-22T09:12:36.994Z,70.14
2019-03-22T09:15:11.031Z,69.34
2019-03-22T09:17:44.971Z,68.93
2019-03-22T09:20:18.919Z,68.81
2019-03-22T09:22:52.846Z,69.30
2019-03-22T09:25:26.827Z,69.10
2019-03-22T09:28:00.727Z,68.99
2019-03-22T09:30:35.747Z,69.12
2019-03-22T09:33:09.982Z,69.37
2019-03-22T09:35:43.909Z,69.98
2019-03-22T09:38:17.879Z,69.74
2019-03-22T09:40:51.817Z,69.69
2019-03-22T09:43:25.808Z,69.02
2019-03-22T09:46:00.903Z,69.50
2019-03-22T09:48:34.897Z,68.74
2019-03-22T09:51:08.829Z,69.01
2019-03-22T09:53:44.284Z,69.35
2019-03-22T09:56:19.523Z,68.75
2019-03-22T09:58:54.554Z,68.89
2019-03-22T10:01:30.969Z,69.19
2019-03-22T10:04:05.157Z,69.51
2019-03-22T10:06:39.138Z,69.17
2019-03-22T10:09:13.098Z,70.49
2019-03-22T10:11:47.392Z,68.51
2019-03-22T10:14:21.582Z,68.32
2019-03-22T10:16:55.716Z,67.96
2019-03-22T10:19:29.824Z,68.06
2019-03-22T10:22:04.071Z,68.10
2019-03-22T10:24:40.470Z,67.97
2019-03-22T10:27:14.479Z,68.14
2019-03-22T10:29:48.800Z,68.00
2019-03-22T10:32:23.972Z,67.68
2019-03-22T10:34:59.631Z,67.78
2019-03-22T10:37:33.975Z,67.74
2019-03-22T10:40:08.209Z,67.64
2019-03-22T10:42:44.275Z,67.89
2019-03-22T10:45:18.374Z,68.26
2019-03-22T10:47:52.432Z,68.20
2019-03-22T13:39:39.691Z,68.48
2019-03-22T13:42:13.874Z,68.34
2019-03-22T13:44:49.196Z,68.16
2019-03-22T13:47:24.761Z,67.90
2019-03-22T13:49:58.943Z,68.14
2019-03-22T13:52:33.314Z,68.09
2019-03-22T13:55:18.285Z,68.54
2019-03-22T14:01:55.705Z,68.78
2019-03-22T14:04:35.744Z,68.72
2019-03-22T14:07:21.011Z,68.89
2019-03-22T14:09:58.192Z,68.93
2019-03-22T14:12:40.851Z,68.97
2019-03-22T14:15:20.455Z,68.80
2019-03-22T14:18:01.119Z,69.20
2019-03-22T14:20:48.461Z,69.05
2019-03-22T14:23:25.550Z,69.05
2019-03-22T14:25:59.744Z,69.09
2019-03-22T14:28:38.693Z,68.97
2019-03-22T14:31:12.749Z,69.21
2019-03-22T14:33:51.262Z,69.21
2019-03-22T14:36:27.352Z,69.13
2019-03-22T14:39:01.794Z,69.53
2019-03-22T14:41:37.240Z,69.28
2019-03-22T14:44:12.154Z,69.31
2019-03-22T14:46:49.984Z,69.42
2019-03-22T14:49:32.025Z,69.52
2019-03-22T14:52:05.284Z,69.62
2019-03-22T14:54:47.905Z,69.88
2019-03-22T14:57:28.509Z,69.88
2019-03-22T15:00:03.435Z,70.17
2019-03-22T15:02:38.126Z,70.01
2019-03-22T15:05:13.719Z,70.28
2019-03-22T15:07:48.408Z,70.30
2019-03-22T15:10:22.743Z,70.54
2019-03-22T15:12:57.096Z,70.54
2019-03-22T15:15:59.900Z,71.17
2019-03-22T15:19:04.800Z,71.11
2019-03-22T15:22:13.122Z,71.24
2019-03-22T15:25:11.586Z,71.30
2019-03-22T15:28:21.748Z,71.39
2019-03-22T15:31:29.450Z,71.55
2019-03-22T15:34:24.326Z,71.71
2019-03-22T15:37:27.269Z,71.80
2019-03-22T15:40:04.486Z,72.00
2019-03-22T15:42:39.044Z,72.02
2019-03-22T15:45:13.996Z,72.38
2019-03-22T15:47:48.425Z,72.58
2019-03-22T15:50:22.675Z,72.62
2019-03-22T15:52:56.708Z,72.96
2019-03-22T15:55:31.067Z,72.70
2019-03-22T15:58:05.499Z,72.37
2019-03-22T16:00:39.931Z,72.33
2019-03-22T16:03:14.125Z,72.31
2019-03-22T16:05:48.386Z,72.41
2019-03-22T16:08:22.557Z,72.38
2019-03-22T16:10:56.736Z,72.53
2019-03-22T16:13:31.340Z,72.69
2019-03-22T16:16:07.633Z,72.87
2019-03-22T16:18:44.336Z,73.07
2019-03-22T16:21:19.802Z,73.26
2019-03-22T16:23:55.910Z,73.54
2019-03-22T16:26:31.452Z,73.26
2019-03-22T16:29:05.795Z,73.33
2019-03-22T16:31:40.027Z,73.14
2019-03-22T16:34:14.255Z,73.06
2019-03-22T16:36:48.688Z,73.14
2019-03-22T16:39:23.083Z,73.17
2019-03-22T16:41:57.290Z,73.11
2019-03-22T16:44:31.368Z,73.33
2019-03-22T16:47:05.608Z,73.10
2019-03-22T16:49:40.213Z,73.41
2019-03-22T16:52:14.733Z,73.13
2019-03-22T16:54:49.323Z,73.38
2019-03-22T16:57:24.453Z,73.14
2019-03-22T16:59:58.874Z,73.30
2019-03-22T17:02:34.478Z,73.22
2019-03-22T17:05:09.128Z,73.06
2019-03-22T17:07:43.281Z,73.23
2019-03-22T17:10:17.672Z,73.23
2019-03-22T17:12:52.864Z,73.21
2019-03-22T17:15:28.094Z,73.25
2019-03-22T17:18:03.123Z,73.24
2019-03-22T17:20:37.206Z,73.12
2019-03-22T17:23:11.353Z,73.07
2019-03-22T17:25:45.474Z,72.95
2019-03-22T17:28:19.869Z,72.88
2019-03-22T17:30:55.594Z,72.81
2019-03-22T17:33:29.731Z,72.72
2019-03-22T17:36:04.794Z,72.65
2019-03-22T17:38:39.611Z,72.40
2019-03-22T17:41:15.567Z,72.42
2019-03-22T17:43:49.769Z,72.22
2019-03-22T17:46:23.950Z,71.99
2019-03-22T17:48:59.368Z,71.68
2019-03-22T17:51:33.585Z,71.45
2019-03-22T17:54:07.686Z,71.35
2019-03-22T17:56:53.367Z,71.04
2019-03-22T17:59:29.203Z,71.00
2019-03-22T18:02:03.498Z,71.05
2019-03-22T18:04:38.794Z,71.12
2019-03-22T18:07:13.487Z,71.27
2019-03-22T18:09:47.696Z,71.35
2019-03-22T18:12:21.713Z,71.36
2019-03-22T18:14:59.471Z,71.51
2019-03-22T18:17:34.666Z,71.51
2019-03-22T18:20:11.313Z,71.58
2019-03-22T18:22:45.549Z,71.60
2019-03-22T18:25:19.810Z,71.73
2019-03-22T18:27:54.255Z,71.73
2019-03-22T18:30:30.006Z,71.90
2019-03-22T18:33:04.026Z,71.84
2019-03-22T18:35:39.036Z,71.97
2019-03-22T18:38:13.089Z,72.24
2019-03-22T18:40:47.624Z,72.72
2019-03-22T18:43:21.794Z,72.85
2019-03-22T18:45:58.633Z,72.98
2019-03-22T18:48:32.957Z,72.93
2019-03-22T18:51:07.385Z,73.47
2019-03-22T18:53:41.532Z,73.14
2019-03-22T18:56:15.756Z,73.05
2019-03-22T18:58:51.474Z,72.84
2019-03-22T19:01:37.592Z,72.80
2019-03-22T19:04:16.440Z,72.85
2019-03-22T19:06:51.759Z,72.83
2019-03-22T19:09:26.783Z,73.12
2019-03-22T19:12:01.103Z,72.99
2019-03-22T19:14:35.355Z,73.43
2019-03-22T19:17:09.576Z,73.71
2019-03-22T19:19:43.602Z,73.80
2019-03-22T19:22:17.707Z,73.96
2019-03-22T19:24:51.837Z,73.97
2019-03-22T19:27:26.086Z,73.87
2019-03-22T19:30:00.405Z,74.22
2019-03-22T19:32:35.842Z,74.46
2019-03-22T19:35:11.124Z,74.54
2019-03-22T19:37:45.226Z,74.57
2019-03-22T19:40:20.207Z,74.58
2019-03-22T19:42:55.780Z,74.61
2019-03-22T19:45:30.069Z,74.79
2019-03-22T19:48:06.517Z,74.88
2019-03-22T19:50:45.558Z,75.11
2019-03-22T19:53:21.032Z,75.09
2019-03-22T19:55:56.031Z,74.85
2019-03-22T19:58:30.381Z,75.10
2019-03-22T20:01:06.110Z,75.31
2019-03-22T20:03:48.229Z,75.44
2019-03-22T20:06:24.151Z,75.53
2019-03-22T20:08:58.423Z,75.79
2019-03-22T20:11:33.695Z,76.06
2019-03-22T20:14:08.033Z,76.54
2019-03-22T20:16:45.826Z,76.67
2019-03-22T20:19:21.870Z,77.04
2019-03-22T20:21:57.776Z,77.10
2019-03-22T20:24:32.447Z,77.17
2019-03-22T20:27:06.704Z,77.47
2019-03-22T20:29:41.233Z,77.38
2019-03-22T20:32:15.462Z,77.23
2019-03-22T20:34:50.622Z,77.27
2019-03-22T20:37:24.817Z,77.15
2019-03-22T20:39:58.820Z,77.45
2019-03-22T20:42:33.030Z,76.90
2019-03-22T20:45:07.243Z,76.58
2019-03-22T20:47:42.072Z,76.40
2019-03-22T20:50:16.297Z,76.18
2019-03-22T20:52:50.400Z,76.13
2019-03-22T20:55:24.682Z,76.01
2019-03-22T20:58:01.515Z,75.84
2019-03-22T21:00:35.765Z,75.62
2019-03-22T21:03:10.014Z,75.59
2019-03-22T21:05:44.146Z,75.52
2019-03-22T21:08:18.278Z,75.37
2019-03-22T21:10:52.532Z,74.45
2019-03-22T21:13:26.726Z,74.28
2019-03-22T21:16:00.760Z,74.19
2019-03-22T21:18:34.749Z,74.19
2019-03-22T21:21:08.850Z,74.00
2019-03-22T21:23:42.872Z,73.90
2019-03-22T21:26:16.865Z,73.79
2019-03-22T21:28:50.959Z,73.67
2019-03-22T21:31:25.021Z,73.80
2019-03-22T21:33:59.242Z,73.83
2019-03-22T21:36:33.385Z,73.71
2019-03-22T21:39:08.922Z,73.64
2019-03-22T21:41:43.829Z,73.48
2019-03-22T21:44:17.845Z,73.38
2019-03-22T21:46:51.962Z,73.27
2019-03-22T21:49:25.966Z,73.17
2019-03-22T21:51:59.983Z,73.16
2019-03-22T21:54:33.997Z,73.21
2019-03-22T21:57:08.030Z,73.42
2019-03-22T21:59:42.027Z,73.35
2019-03-22T22:02:16.016Z,73.20
2019-03-22T22:04:50.604Z,73.20
2019-03-22T22:07:24.809Z,73.09
2019-03-22T22:09:58.841Z,72.92
2019-03-22T22:12:32.872Z,72.78
2019-03-22T22:15:10.228Z,72.67
2019-03-22T22:17:44.560Z,72.68
2019-03-22T22:20:28.455Z,72.61
2019-03-22T22:22:54.285Z,72.60
2019-03-22T22:25:29.703Z,72.48
2019-03-22T22:28:03.897Z,72.59
2019-03-22T22:30:37.903Z,72.49
2019-03-22T22:33:11.939Z,72.68
2019-03-22T22:35:46.987Z,72.48
2019-03-22T22:38:21.009Z,72.41
2019-03-22T22:40:55.162Z,72.35
2019-03-22T22:43:29.422Z,72.36
2019-03-22T22:46:03.446Z,72.52
2019-03-22T22:48:37.573Z,72.50
2019-03-22T22:51:11.481Z,72.31
2019-03-22T22:53:45.614Z,72.40
2019-03-22T22:56:19.733Z,72.29
2019-03-22T22:58:53.847Z,72.20
2019-03-22T23:01:27.938Z,72.05
2019-03-22T23:04:02.418Z,71.95
2019-03-22T23:06:36.593Z,71.95
2019-03-22T23:09:10.734Z,71.97
2019-03-22T23:11:44.851Z,72.14
2019-03-22T23:14:18.979Z,72.16
2019-03-22T23:16:52.975Z,72.23
2019-03-22T23:19:27.061Z,72.06
2019-03-22T23:22:01.171Z,72.22
2019-03-22T23:24:35.249Z,72.21
2019-03-22T23:27:10.199Z,72.10
2019-03-22T23:29:44.200Z,71.97
2019-03-22T23:32:18.382Z,71.78
2019-03-22T23:34:58.895Z,71.56
2019-03-22T23:37:28.164Z,71.34
2019-03-22T23:40:02.202Z,71.13
2019-03-22T23:42:36.569Z,70.84
2019-03-22T23:45:10.739Z,70.90
2019-03-22T23:47:46.001Z,70.75
2019-03-22T23:50:20.094Z,70.71
2019-03-22T23:52:54.189Z,70.60
2019-03-22T23:55:28.699Z,70.47
2019-03-22T23:58:03.688Z,70.80
